sensor_id;sensor_type;location;lat;lon;timestamp;temperature;humidity
21439;DHT22;10880;50.302;18.736;2023-05-15T00:02:06;19.90;51.10
21439;DHT22;10880;50.302;18.736;2023-05-15T00:04:59;19.90;51.00
21439;DHT22;10880;50.302;18.736;2023-05-15T00:07:34;19.80;51.20
21439;DHT22;10880;50.302;18.736;2023-05-15T00:10:27;19.80;51.20
21439;DHT22;10880;50.302;18.736;2023-05-15T00:12:59;19.90;51.20
21439;DHT22;10880;50.302;18.736;2023-05-15T00:15:53;19.80;51.20
21439;DHT22;10880;50.302;18.736;2023-05-15T00:18:26;19.80;51.30
21439;DHT22;10880;50.302;18.736;2023-05-15T00:21:19;19.80;51.20
21439;DHT22;10880;50.302;18.736;2023-05-15T00:23:52;19.80;51.30
21439;DHT22;10880;50.302;18.736;2023-05-15T00:26:46;19.80;51.30
21439;DHT22;10880;50.302;18.736;2023-05-15T00:29:19;19.80;51.40
21439;DHT22;10880;50.302;18.736;2023-05-15T00:32:12;19.80;51.40
21439;DHT22;10880;50.302;18.736;2023-05-15T00:34:45;19.80;51.40
21439;DHT22;10880;50.302;18.736;2023-05-15T00:37:38;19.70;51.40
21439;DHT22;10880;50.302;18.736;2023-05-15T00:40:12;19.70;51.50
21439;DHT22;10880;50.302;18.736;2023-05-15T00:43:10;19.70;51.60
21439;DHT22;10880;50.302;18.736;2023-05-15T00:45:44;19.70;51.70
21439;DHT22;10880;50.302;18.736;2023-05-15T00:48:38;19.70;51.60
21439;DHT22;10880;50.302;18.736;2023-05-15T00:51:11;19.70;51.80
21439;DHT22;10880;50.302;18.736;2023-05-15T00:54:04;19.70;51.70
21439;DHT22;10880;50.302;18.736;2023-05-15T00:56:38;19.60;51.80
21439;DHT22;10880;50.302;18.736;2023-05-15T00:59:32;19.60;51.70
21439;DHT22;10880;50.302;18.736;2023-05-15T01:02:05;19.60;51.90
21439;DHT22;10880;50.302;18.736;2023-05-15T01:04:59;19.60;51.80
21439;DHT22;10880;50.302;18.736;2023-05-15T01:07:39;19.60;51.90
21439;DHT22;10880;50.302;18.736;2023-05-15T01:10:39;19.60;52.00
21439;DHT22;10880;50.302;18.736;2023-05-15T01:13:14;19.60;52.10
21439;DHT22;10880;50.302;18.736;2023-05-15T01:16:09;19.60;52.10
21439;DHT22;10880;50.302;18.736;2023-05-15T01:18:41;19.50;52.10
21439;DHT22;10880;50.302;18.736;2023-05-15T01:28:08;19.50;52.30
21439;DHT22;10880;50.302;18.736;2023-05-15T01:30:43;19.50;52.20
21439;DHT22;10880;50.302;18.736;2023-05-15T01:33:42;19.50;52.20
21439;DHT22;10880;50.302;18.736;2023-05-15T01:39:19;19.40;52.30
21439;DHT22;10880;50.302;18.736;2023-05-15T01:44:55;19.40;52.30
21439;DHT22;10880;50.302;18.736;2023-05-15T01:47:43;19.40;52.50
21439;DHT22;10880;50.302;18.736;2023-05-15T01:50:38;19.40;52.60
21439;DHT22;10880;50.302;18.736;2023-05-15T01:53:11;19.40;52.60
21439;DHT22;10880;50.302;18.736;2023-05-15T01:56:07;19.30;52.40
21439;DHT22;10880;50.302;18.736;2023-05-15T01:58:42;19.40;52.60
21439;DHT22;10880;50.302;18.736;2023-05-15T02:01:37;19.40;52.60
21439;DHT22;10880;50.302;18.736;2023-05-15T02:04:11;19.40;52.70
21439;DHT22;10880;50.302;18.736;2023-05-15T02:07:04;19.40;52.30
21439;DHT22;10880;50.302;18.736;2023-05-15T02:09:51;19.30;52.40
21439;DHT22;10880;50.302;18.736;2023-05-15T02:12:44;19.30;52.80
21439;DHT22;10880;50.302;18.736;2023-05-15T02:15:28;19.30;52.90
21439;DHT22;10880;50.302;18.736;2023-05-15T02:18:20;19.30;52.80
21439;DHT22;10880;50.302;18.736;2023-05-15T02:21:00;19.30;52.90
21439;DHT22;10880;50.302;18.736;2023-05-15T02:23:48;19.30;52.80
21439;DHT22;10880;50.302;18.736;2023-05-15T02:35:57;19.20;53.20
21439;DHT22;10880;50.302;18.736;2023-05-15T02:38:49;19.20;53.20
21439;DHT22;10880;50.302;18.736;2023-05-15T02:41:36;19.20;53.30
21439;DHT22;10880;50.302;18.736;2023-05-15T02:44:17;19.20;53.30
21439;DHT22;10880;50.302;18.736;2023-05-15T02:47:05;19.20;53.30
21439;DHT22;10880;50.302;18.736;2023-05-15T02:49:44;19.20;54.00
21439;DHT22;10880;50.302;18.736;2023-05-15T02:52:32;19.20;53.30
21439;DHT22;10880;50.302;18.736;2023-05-15T02:55:12;19.20;53.50
21439;DHT22;10880;50.302;18.736;2023-05-15T02:57:59;19.20;53.40
21439;DHT22;10880;50.302;18.736;2023-05-15T03:00:39;19.20;53.50
21439;DHT22;10880;50.302;18.736;2023-05-15T03:03:26;19.20;53.40
21439;DHT22;10880;50.302;18.736;2023-05-15T03:06:06;19.10;53.50
21439;DHT22;10880;50.302;18.736;2023-05-15T03:08:54;19.10;53.40
21439;DHT22;10880;50.302;18.736;2023-05-15T03:11:33;19.10;53.60
21439;DHT22;10880;50.302;18.736;2023-05-15T03:14:20;19.10;53.50
21439;DHT22;10880;50.302;18.736;2023-05-15T03:17:00;19.10;53.70
21439;DHT22;10880;50.302;18.736;2023-05-15T03:19:47;19.10;53.70
21439;DHT22;10880;50.302;18.736;2023-05-15T03:22:26;19.10;53.80
21439;DHT22;10880;50.302;18.736;2023-05-15T03:25:13;19.10;53.80
21439;DHT22;10880;50.302;18.736;2023-05-15T03:27:52;19.10;53.90
21439;DHT22;10880;50.302;18.736;2023-05-15T03:30:39;19.00;53.90
21439;DHT22;10880;50.302;18.736;2023-05-15T03:33:21;19.00;54.10
21439;DHT22;10880;50.302;18.736;2023-05-15T03:36:08;19.00;53.90
21439;DHT22;10880;50.302;18.736;2023-05-15T03:38:47;19.10;54.10
21439;DHT22;10880;50.302;18.736;2023-05-15T03:41:34;19.00;54.00
21439;DHT22;10880;50.302;18.736;2023-05-15T03:44:13;19.00;54.10
21439;DHT22;10880;50.302;18.736;2023-05-15T03:47:00;19.00;54.20
21439;DHT22;10880;50.302;18.736;2023-05-15T03:49:40;19.00;54.30
21439;DHT22;10880;50.302;18.736;2023-05-15T03:52:27;19.00;54.20
21439;DHT22;10880;50.302;18.736;2023-05-15T03:55:07;19.00;54.30
21439;DHT22;10880;50.302;18.736;2023-05-15T03:57:53;19.00;54.30
21439;DHT22;10880;50.302;18.736;2023-05-15T04:00:33;19.00;54.40
21439;DHT22;10880;50.302;18.736;2023-05-15T04:03:20;19.00;54.30
21439;DHT22;10880;50.302;18.736;2023-05-15T04:05:59;19.00;54.50
21439;DHT22;10880;50.302;18.736;2023-05-15T04:08:46;18.90;54.40
21439;DHT22;10880;50.302;18.736;2023-05-15T04:11:26;18.90;54.50
21439;DHT22;10880;50.302;18.736;2023-05-15T04:14:12;18.90;54.10
21439;DHT22;10880;50.302;18.736;2023-05-15T04:16:52;18.90;54.70
21439;DHT22;10880;50.302;18.736;2023-05-15T04:19:39;18.90;54.60
21439;DHT22;10880;50.302;18.736;2023-05-15T04:22:18;19.00;54.80
21439;DHT22;10880;50.302;18.736;2023-05-15T04:25:05;19.00;54.80
21439;DHT22;10880;50.302;18.736;2023-05-15T04:27:47;18.90;54.90
21439;DHT22;10880;50.302;18.736;2023-05-15T04:30:33;18.90;54.80
21439;DHT22;10880;50.302;18.736;2023-05-15T04:33:12;18.90;55.50
21439;DHT22;10880;50.302;18.736;2023-05-15T04:35:59;18.90;54.90
21439;DHT22;10880;50.302;18.736;2023-05-15T04:38:38;18.90;55.00
21439;DHT22;10880;50.302;18.736;2023-05-15T04:41:25;18.90;55.10
21439;DHT22;10880;50.302;18.736;2023-05-15T04:44:04;18.90;55.10
21439;DHT22;10880;50.302;18.736;2023-05-15T04:46:51;18.90;55.20
21439;DHT22;10880;50.302;18.736;2023-05-15T04:49:30;19.00;55.30
21439;DHT22;10880;50.302;18.736;2023-05-15T04:52:19;18.90;55.20
21439;DHT22;10880;50.302;18.736;2023-05-15T04:54:58;18.90;55.40
21439;DHT22;10880;50.302;18.736;2023-05-15T04:57:46;19.00;55.40
21439;DHT22;10880;50.302;18.736;2023-05-15T05:00:27;18.90;55.60
21439;DHT22;10880;50.302;18.736;2023-05-15T05:03:14;19.00;55.50
21439;DHT22;10880;50.302;18.736;2023-05-15T05:05:53;18.90;55.60
21439;DHT22;10880;50.302;18.736;2023-05-15T05:08:40;19.00;55.50
21439;DHT22;10880;50.302;18.736;2023-05-15T05:11:19;19.00;55.40
21439;DHT22;10880;50.302;18.736;2023-05-15T05:14:06;18.90;55.70
21439;DHT22;10880;50.302;18.736;2023-05-15T05:16:46;18.90;55.70
21439;DHT22;10880;50.302;18.736;2023-05-15T05:19:33;19.00;55.80
21439;DHT22;10880;50.302;18.736;2023-05-15T05:22:12;19.00;56.00
21439;DHT22;10880;50.302;18.736;2023-05-15T05:24:59;18.90;55.80
21439;DHT22;10880;50.302;18.736;2023-05-15T05:27:38;18.90;55.90
21439;DHT22;10880;50.302;18.736;2023-05-15T05:30:25;18.90;55.90
21439;DHT22;10880;50.302;18.736;2023-05-15T05:33:04;19.00;55.70
21439;DHT22;10880;50.302;18.736;2023-05-15T05:35:51;19.00;55.70
21439;DHT22;10880;50.302;18.736;2023-05-15T05:38:31;19.00;56.20
21439;DHT22;10880;50.302;18.736;2023-05-15T05:41:17;19.00;56.20
21439;DHT22;10880;50.302;18.736;2023-05-15T05:44:02;19.00;56.30
21439;DHT22;10880;50.302;18.736;2023-05-15T05:46:51;19.00;56.50
21439;DHT22;10880;50.302;18.736;2023-05-15T05:49:33;19.00;55.90
21439;DHT22;10880;50.302;18.736;2023-05-15T05:52:21;19.00;56.40
21439;DHT22;10880;50.302;18.736;2023-05-15T05:55:00;19.00;56.40
21439;DHT22;10880;50.302;18.736;2023-05-15T05:57:47;19.10;56.40
21439;DHT22;10880;50.302;18.736;2023-05-15T06:00:26;19.10;56.50
21439;DHT22;10880;50.302;18.736;2023-05-15T06:03:14;19.10;56.30
21439;DHT22;10880;50.302;18.736;2023-05-15T06:05:54;19.10;56.50
21439;DHT22;10880;50.302;18.736;2023-05-15T06:08:44;19.10;56.40
21439;DHT22;10880;50.302;18.736;2023-05-15T06:11:24;19.10;56.70
21439;DHT22;10880;50.302;18.736;2023-05-15T06:14:11;19.10;56.60
21439;DHT22;10880;50.302;18.736;2023-05-15T06:16:51;19.10;56.70
21439;DHT22;10880;50.302;18.736;2023-05-15T06:19:39;19.10;57.40
21439;DHT22;10880;50.302;18.736;2023-05-15T06:22:18;19.10;56.80
21439;DHT22;10880;50.302;18.736;2023-05-15T06:25:05;19.10;56.90
21439;DHT22;10880;50.302;18.736;2023-05-15T06:27:46;19.10;57.10
21439;DHT22;10880;50.302;18.736;2023-05-15T06:30:33;19.00;56.90
21439;DHT22;10880;50.302;18.736;2023-05-15T06:33:12;19.10;57.10
21439;DHT22;10880;50.302;18.736;2023-05-15T06:36:00;19.10;57.10
21439;DHT22;10880;50.302;18.736;2023-05-15T06:38:40;19.10;57.30
21439;DHT22;10880;50.302;18.736;2023-05-15T06:41:28;19.10;57.20
21439;DHT22;10880;50.302;18.736;2023-05-15T06:44:08;19.10;57.40
21439;DHT22;10880;50.302;18.736;2023-05-15T06:46:55;19.10;57.20
21439;DHT22;10880;50.302;18.736;2023-05-15T06:49:34;19.10;57.30
21439;DHT22;10880;50.302;18.736;2023-05-15T06:52:21;19.20;57.40
21439;DHT22;10880;50.302;18.736;2023-05-15T06:55:00;19.20;57.60
21439;DHT22;10880;50.302;18.736;2023-05-15T06:57:47;19.20;57.60
21439;DHT22;10880;50.302;18.736;2023-05-15T07:00:26;19.20;57.60
21439;DHT22;10880;50.302;18.736;2023-05-15T07:03:13;19.20;57.60
21439;DHT22;10880;50.302;18.736;2023-05-15T07:06:06;19.20;57.70
21439;DHT22;10880;50.302;18.736;2023-05-15T07:08:39;19.20;57.60
21439;DHT22;10880;50.302;18.736;2023-05-15T07:11:32;19.20;57.70
21439;DHT22;10880;50.302;18.736;2023-05-15T07:14:10;19.20;57.80
21439;DHT22;10880;50.302;18.736;2023-05-15T07:17:03;19.30;57.80
21439;DHT22;10880;50.302;18.736;2023-05-15T07:19:37;19.30;58.00
21439;DHT22;10880;50.302;18.736;2023-05-15T07:22:30;19.30;58.00
21439;DHT22;10880;50.302;18.736;2023-05-15T07:25:03;19.30;58.00
21439;DHT22;10880;50.302;18.736;2023-05-15T07:27:56;19.30;57.90
21439;DHT22;10880;50.302;18.736;2023-05-15T07:30:28;19.30;58.30
21439;DHT22;10880;50.302;18.736;2023-05-15T07:33:22;19.30;58.10
21439;DHT22;10880;50.302;18.736;2023-05-15T07:35:55;19.40;58.30
21439;DHT22;10880;50.302;18.736;2023-05-15T07:38:56;19.40;58.30
21439;DHT22;10880;50.302;18.736;2023-05-15T07:41:29;19.40;58.10
21439;DHT22;10880;50.302;18.736;2023-05-15T07:44:23;19.40;58.50
21439;DHT22;10880;50.302;18.736;2023-05-15T07:46:57;19.40;58.60
21439;DHT22;10880;50.302;18.736;2023-05-15T07:49:52;19.40;58.60
21439;DHT22;10880;50.302;18.736;2023-05-15T07:52:25;19.40;58.70
21439;DHT22;10880;50.302;18.736;2023-05-15T07:55:18;19.40;58.50
21439;DHT22;10880;50.302;18.736;2023-05-15T07:57:51;19.40;58.60
21439;DHT22;10880;50.302;18.736;2023-05-15T08:00:44;19.40;58.60
21439;DHT22;10880;50.302;18.736;2023-05-15T08:03:16;19.40;58.70
21439;DHT22;10880;50.302;18.736;2023-05-15T08:06:10;19.40;58.70
21439;DHT22;10880;50.302;18.736;2023-05-15T08:08:43;19.40;59.00
21439;DHT22;10880;50.302;18.736;2023-05-15T08:11:36;19.40;58.60
21439;DHT22;10880;50.302;18.736;2023-05-15T08:14:09;19.40;58.90
21439;DHT22;10880;50.302;18.736;2023-05-15T08:17:02;19.40;58.90
21439;DHT22;10880;50.302;18.736;2023-05-15T08:19:38;19.40;58.90
21439;DHT22;10880;50.302;18.736;2023-05-15T08:22:31;19.40;59.00
21439;DHT22;10880;50.302;18.736;2023-05-15T08:25:04;19.40;59.10
21439;DHT22;10880;50.302;18.736;2023-05-15T08:27:57;19.40;59.30
21439;DHT22;10880;50.302;18.736;2023-05-15T08:30:30;19.50;59.50
21439;DHT22;10880;50.302;18.736;2023-05-15T08:33:23;19.50;59.40
21439;DHT22;10880;50.302;18.736;2023-05-15T08:35:56;19.50;59.50
21439;DHT22;10880;50.302;18.736;2023-05-15T08:38:50;19.50;59.70
21439;DHT22;10880;50.302;18.736;2023-05-15T08:41:41;19.50;59.70
21439;DHT22;10880;50.302;18.736;2023-05-15T08:44:39;19.60;59.70
21439;DHT22;10880;50.302;18.736;2023-05-15T08:47:17;19.60;60.00
21439;DHT22;10880;50.302;18.736;2023-05-15T08:50:13;19.60;60.10
21439;DHT22;10880;50.302;18.736;2023-05-15T08:52:47;19.60;59.60
21439;DHT22;10880;50.302;18.736;2023-05-15T08:55:43;19.60;60.10
21439;DHT22;10880;50.302;18.736;2023-05-15T08:58:17;19.50;60.00
21439;DHT22;10880;50.302;18.736;2023-05-15T09:01:13;19.50;59.80
21439;DHT22;10880;50.302;18.736;2023-05-15T09:03:47;19.50;60.00
21439;DHT22;10880;50.302;18.736;2023-05-15T09:06:40;19.50;59.90
21439;DHT22;10880;50.302;18.736;2023-05-15T09:09:15;19.60;60.20
21439;DHT22;10880;50.302;18.736;2023-05-15T09:12:14;19.70;60.20
21439;DHT22;10880;50.302;18.736;2023-05-15T09:14:48;19.60;60.50
21439;DHT22;10880;50.302;18.736;2023-05-15T09:17:41;19.60;60.20
21439;DHT22;10880;50.302;18.736;2023-05-15T09:20:28;19.60;60.30
21439;DHT22;10880;50.302;18.736;2023-05-15T09:23:26;19.60;60.40
21439;DHT22;10880;50.302;18.736;2023-05-15T09:26:01;19.60;60.30
21439;DHT22;10880;50.302;18.736;2023-05-15T09:29:01;19.60;60.30
21439;DHT22;10880;50.302;18.736;2023-05-15T09:31:34;19.60;60.60
21439;DHT22;10880;50.302;18.736;2023-05-15T09:34:31;19.60;60.80
21439;DHT22;10880;50.302;18.736;2023-05-15T09:37:06;19.60;61.00
21439;DHT22;10880;50.302;18.736;2023-05-15T09:40:07;19.60;60.70
21439;DHT22;10880;50.302;18.736;2023-05-15T09:42:50;19.60;60.90
21439;DHT22;10880;50.302;18.736;2023-05-15T09:49:51;19.60;61.10
21439;DHT22;10880;50.302;18.736;2023-05-15T09:52:44;19.60;60.50
21439;DHT22;10880;50.302;18.736;2023-05-15T09:55:18;19.60;60.70
21439;DHT22;10880;50.302;18.736;2023-05-15T09:58:13;19.60;60.70
21439;DHT22;10880;50.302;18.736;2023-05-15T10:00:47;19.60;61.00
21439;DHT22;10880;50.302;18.736;2023-05-15T10:03:40;19.60;60.80
21439;DHT22;10880;50.302;18.736;2023-05-15T10:06:37;19.60;61.30
21439;DHT22;10880;50.302;18.736;2023-05-15T10:09:11;19.60;61.40
21439;DHT22;10880;50.302;18.736;2023-05-15T10:12:07;19.60;61.40
21439;DHT22;10880;50.302;18.736;2023-05-15T10:14:41;19.70;62.00
21439;DHT22;10880;50.302;18.736;2023-05-15T10:17:35;19.70;62.00
21439;DHT22;10880;50.302;18.736;2023-05-15T10:20:09;19.80;62.30
21439;DHT22;10880;50.302;18.736;2023-05-15T10:23:04;19.80;62.40
21439;DHT22;10880;50.302;18.736;2023-05-15T10:28:38;19.90;63.30
21439;DHT22;10880;50.302;18.736;2023-05-15T10:31:12;20.00;63.10
21439;DHT22;10880;50.302;18.736;2023-05-15T10:34:07;20.00;63.00
21439;DHT22;10880;50.302;18.736;2023-05-15T10:36:41;20.10;63.30
21439;DHT22;10880;50.302;18.736;2023-05-15T10:39:36;20.10;62.80
21439;DHT22;10880;50.302;18.736;2023-05-15T10:42:11;20.10;63.00
21439;DHT22;10880;50.302;18.736;2023-05-15T10:45:06;20.20;62.50
21439;DHT22;10880;50.302;18.736;2023-05-15T10:47:42;20.20;62.40
21439;DHT22;10880;50.302;18.736;2023-05-15T10:50:38;20.20;62.10
21439;DHT22;10880;50.302;18.736;2023-05-15T10:53:11;20.30;62.30
21439;DHT22;10880;50.302;18.736;2023-05-15T10:56:05;20.30;62.50
21439;DHT22;10880;50.302;18.736;2023-05-15T10:58:38;20.40;62.70
21439;DHT22;10880;50.302;18.736;2023-05-15T11:01:34;20.40;63.10
21439;DHT22;10880;50.302;18.736;2023-05-15T11:04:16;20.50;63.00
21439;DHT22;10880;50.302;18.736;2023-05-15T11:07:14;20.50;62.90
21439;DHT22;10880;50.302;18.736;2023-05-15T11:09:47;20.60;62.70
21439;DHT22;10880;50.302;18.736;2023-05-15T11:12:56;20.60;62.40
21439;DHT22;10880;50.302;18.736;2023-05-15T11:15:46;20.60;61.50
21439;DHT22;10880;50.302;18.736;2023-05-15T11:18:39;20.60;62.20
21439;DHT22;10880;50.302;18.736;2023-05-15T11:21:12;20.60;61.80
21439;DHT22;10880;50.302;18.736;2023-05-15T11:24:05;20.70;61.90
21439;DHT22;10880;50.302;18.736;2023-05-15T11:26:41;20.70;61.90
21439;DHT22;10880;50.302;18.736;2023-05-15T11:29:35;20.70;61.80
21439;DHT22;10880;50.302;18.736;2023-05-15T11:35:39;20.80;62.10
21439;DHT22;10880;50.302;18.736;2023-05-15T11:38:24;20.80;61.80
21439;DHT22;10880;50.302;18.736;2023-05-15T11:41:18;20.80;61.90
21439;DHT22;10880;50.302;18.736;2023-05-15T11:43:53;20.90;61.90
21439;DHT22;10880;50.302;18.736;2023-05-15T11:46:46;20.90;61.70
21439;DHT22;10880;50.302;18.736;2023-05-15T11:49:20;20.90;61.90
21439;DHT22;10880;50.302;18.736;2023-05-15T11:52:14;20.90;61.70
21439;DHT22;10880;50.302;18.736;2023-05-15T11:54:48;21.00;61.60
21439;DHT22;10880;50.302;18.736;2023-05-15T11:57:41;21.00;61.70
21439;DHT22;10880;50.302;18.736;2023-05-15T12:00:14;21.10;61.40
21439;DHT22;10880;50.302;18.736;2023-05-15T12:03:14;21.00;61.30
21439;DHT22;10880;50.302;18.736;2023-05-15T12:06:09;21.10;61.30
21439;DHT22;10880;50.302;18.736;2023-05-15T12:08:42;21.10;60.90
21439;DHT22;10880;50.302;18.736;2023-05-15T12:11:35;21.10;60.70
21439;DHT22;10880;50.302;18.736;2023-05-15T12:14:10;21.10;60.70
21439;DHT22;10880;50.302;18.736;2023-05-15T12:17:03;21.10;60.70
21439;DHT22;10880;50.302;18.736;2023-05-15T12:19:37;21.20;60.90
21439;DHT22;10880;50.302;18.736;2023-05-15T12:22:38;21.20;61.10
21439;DHT22;10880;50.302;18.736;2023-05-15T12:25:13;21.30;61.00
21439;DHT22;10880;50.302;18.736;2023-05-15T12:28:06;21.30;61.10
21439;DHT22;10880;50.302;18.736;2023-05-15T12:30:39;21.40;60.40
21439;DHT22;10880;50.302;18.736;2023-05-15T12:33:33;21.40;60.10
21439;DHT22;10880;50.302;18.736;2023-05-15T12:36:07;21.50;59.90
21439;DHT22;10880;50.302;18.736;2023-05-15T12:39:05;21.50;59.80
21439;DHT22;10880;50.302;18.736;2023-05-15T12:41:39;21.50;59.50
21439;DHT22;10880;50.302;18.736;2023-05-15T12:44:32;21.50;59.10
21439;DHT22;10880;50.302;18.736;2023-05-15T12:47:06;21.60;59.10
21439;DHT22;10880;50.302;18.736;2023-05-15T12:49:59;21.60;59.10
21439;DHT22;10880;50.302;18.736;2023-05-15T12:52:32;21.60;59.20
21439;DHT22;10880;50.302;18.736;2023-05-15T12:55:30;21.60;59.10
21439;DHT22;10880;50.302;18.736;2023-05-15T12:58:08;21.60;59.20
21439;DHT22;10880;50.302;18.736;2023-05-15T13:01:04;21.70;58.90
21439;DHT22;10880;50.302;18.736;2023-05-15T13:03:38;21.70;58.20
21439;DHT22;10880;50.302;18.736;2023-05-15T13:06:37;21.70;58.60
21439;DHT22;10880;50.302;18.736;2023-05-15T13:09:12;21.70;58.30
21439;DHT22;10880;50.302;18.736;2023-05-15T13:12:05;21.70;58.20
21439;DHT22;10880;50.302;18.736;2023-05-15T13:14:38;21.70;57.80
21439;DHT22;10880;50.302;18.736;2023-05-15T13:17:32;21.70;57.70
21439;DHT22;10880;50.302;18.736;2023-05-15T13:20:11;21.70;57.50
21439;DHT22;10880;50.302;18.736;2023-05-15T13:23:04;21.70;57.50
21439;DHT22;10880;50.302;18.736;2023-05-15T13:25:38;21.70;57.20
21439;DHT22;10880;50.302;18.736;2023-05-15T13:28:32;21.70;57.10
21439;DHT22;10880;50.302;18.736;2023-05-15T13:31:05;21.70;57.10
21439;DHT22;10880;50.302;18.736;2023-05-15T13:33:58;21.70;57.20
21439;DHT22;10880;50.302;18.736;2023-05-15T13:36:31;21.80;56.80
21439;DHT22;10880;50.302;18.736;2023-05-15T13:39:24;21.70;57.20
21439;DHT22;10880;50.302;18.736;2023-05-15T13:41:57;21.80;57.20
21439;DHT22;10880;50.302;18.736;2023-05-15T13:44:50;21.80;57.00
21439;DHT22;10880;50.302;18.736;2023-05-15T13:47:23;21.90;56.10
21439;DHT22;10880;50.302;18.736;2023-05-15T13:50:17;21.90;56.50
21439;DHT22;10880;50.302;18.736;2023-05-15T13:52:51;21.90;56.30
21439;DHT22;10880;50.302;18.736;2023-05-15T13:55:45;21.90;56.40
21439;DHT22;10880;50.302;18.736;2023-05-15T13:58:18;22.00;55.30
21439;DHT22;10880;50.302;18.736;2023-05-15T14:01:11;22.00;55.80
21439;DHT22;10880;50.302;18.736;2023-05-15T14:03:44;22.00;55.70
21439;DHT22;10880;50.302;18.736;2023-05-15T14:06:37;22.00;55.90
21439;DHT22;10880;50.302;18.736;2023-05-15T14:09:10;22.00;55.50
21439;DHT22;10880;50.302;18.736;2023-05-15T14:12:03;22.00;55.50
21439;DHT22;10880;50.302;18.736;2023-05-15T14:14:36;22.00;55.50
21439;DHT22;10880;50.302;18.736;2023-05-15T14:17:29;22.10;55.60
21439;DHT22;10880;50.302;18.736;2023-05-15T14:20:02;22.10;54.70
21439;DHT22;10880;50.302;18.736;2023-05-15T14:22:55;22.10;54.90
21439;DHT22;10880;50.302;18.736;2023-05-15T14:25:28;22.10;54.80
21439;DHT22;10880;50.302;18.736;2023-05-15T14:28:21;22.10;54.80
21439;DHT22;10880;50.302;18.736;2023-05-15T14:30:54;22.10;54.80
21439;DHT22;10880;50.302;18.736;2023-05-15T14:33:47;22.00;54.70
21439;DHT22;10880;50.302;18.736;2023-05-15T14:36:21;22.10;54.60
21439;DHT22;10880;50.302;18.736;2023-05-15T14:39:15;22.00;54.70
21439;DHT22;10880;50.302;18.736;2023-05-15T14:41:48;22.00;54.50
21439;DHT22;10880;50.302;18.736;2023-05-15T14:44:41;22.00;54.40
21439;DHT22;10880;50.302;18.736;2023-05-15T14:47:14;22.00;54.40
21439;DHT22;10880;50.302;18.736;2023-05-15T14:50:07;22.00;54.40
21439;DHT22;10880;50.302;18.736;2023-05-15T14:52:40;22.00;54.40
21439;DHT22;10880;50.302;18.736;2023-05-15T14:55:33;21.90;54.50
21439;DHT22;10880;50.302;18.736;2023-05-15T14:58:06;21.90;54.60
21439;DHT22;10880;50.302;18.736;2023-05-15T15:00:59;21.90;54.70
21439;DHT22;10880;50.302;18.736;2023-05-15T15:03:33;21.90;54.80
21439;DHT22;10880;50.302;18.736;2023-05-15T15:06:27;21.80;54.70
21439;DHT22;10880;50.302;18.736;2023-05-15T15:11:53;21.80;54.40
21439;DHT22;10880;50.302;18.736;2023-05-15T15:14:26;21.80;54.90
21439;DHT22;10880;50.302;18.736;2023-05-15T15:17:19;21.80;55.70
21439;DHT22;10880;50.302;18.736;2023-05-15T15:19:52;21.70;55.00
21439;DHT22;10880;50.302;18.736;2023-05-15T15:22:46;21.70;55.00
21439;DHT22;10880;50.302;18.736;2023-05-15T15:25:20;21.70;55.20
21439;DHT22;10880;50.302;18.736;2023-05-15T15:28:14;21.70;54.80
21439;DHT22;10880;50.302;18.736;2023-05-15T15:30:48;21.70;55.10
21439;DHT22;10880;50.302;18.736;2023-05-15T15:33:41;21.70;55.90
21439;DHT22;10880;50.302;18.736;2023-05-15T15:36:14;21.70;55.20
21439;DHT22;10880;50.302;18.736;2023-05-15T15:39:07;21.70;55.20
21439;DHT22;10880;50.302;18.736;2023-05-15T15:41:40;21.70;54.70
21439;DHT22;10880;50.302;18.736;2023-05-15T15:44:33;21.70;55.20
21439;DHT22;10880;50.302;18.736;2023-05-15T15:47:07;21.70;55.00
21439;DHT22;10880;50.302;18.736;2023-05-15T15:50:00;21.70;55.00
21439;DHT22;10880;50.302;18.736;2023-05-15T15:52:34;21.60;54.90
21439;DHT22;10880;50.302;18.736;2023-05-15T15:55:27;21.60;54.90
21439;DHT22;10880;50.302;18.736;2023-05-15T15:58:00;21.60;54.80
21439;DHT22;10880;50.302;18.736;2023-05-15T16:00:53;21.50;54.90
21439;DHT22;10880;50.302;18.736;2023-05-15T16:03:26;21.50;54.80
21439;DHT22;10880;50.302;18.736;2023-05-15T16:06:19;21.50;54.90
21439;DHT22;10880;50.302;18.736;2023-05-15T16:09:12;21.50;54.80
21439;DHT22;10880;50.302;18.736;2023-05-15T16:11:46;21.50;54.70
21439;DHT22;10880;50.302;18.736;2023-05-15T16:14:39;21.40;54.60
21439;DHT22;10880;50.302;18.736;2023-05-15T16:17:12;21.40;54.50
21439;DHT22;10880;50.302;18.736;2023-05-15T16:20:05;21.30;54.10
21439;DHT22;10880;50.302;18.736;2023-05-15T16:22:39;21.30;54.60
21439;DHT22;10880;50.302;18.736;2023-05-15T16:25:32;20.10;54.00
21439;DHT22;10880;50.302;18.736;2023-05-15T16:28:05;21.30;54.70
21439;DHT22;10880;50.302;18.736;2023-05-15T16:30:58;21.20;54.20
21439;DHT22;10880;50.302;18.736;2023-05-15T16:33:31;21.20;54.50
21439;DHT22;10880;50.302;18.736;2023-05-15T16:36:25;21.20;54.60
21439;DHT22;10880;50.302;18.736;2023-05-15T16:38:59;21.10;54.50
21439;DHT22;10880;50.302;18.736;2023-05-15T16:41:52;21.10;54.60
21439;DHT22;10880;50.302;18.736;2023-05-15T16:44:25;21.10;54.60
21439;DHT22;10880;50.302;18.736;2023-05-15T16:47:20;21.00;54.30
21439;DHT22;10880;50.302;18.736;2023-05-15T16:49:53;21.00;54.80
21439;DHT22;10880;50.302;18.736;2023-05-15T16:52:46;21.00;55.00
21439;DHT22;10880;50.302;18.736;2023-05-15T16:55:20;20.90;54.90
21439;DHT22;10880;50.302;18.736;2023-05-15T16:58:14;20.90;54.90
21439;DHT22;10880;50.302;18.736;2023-05-15T17:00:48;20.90;55.00
21439;DHT22;10880;50.302;18.736;2023-05-15T17:03:41;20.90;54.90
21439;DHT22;10880;50.302;18.736;2023-05-15T17:06:34;20.90;54.40
21439;DHT22;10880;50.302;18.736;2023-05-15T17:09:07;20.90;54.70
21439;DHT22;10880;50.302;18.736;2023-05-15T17:12:00;20.90;54.70
21439;DHT22;10880;50.302;18.736;2023-05-15T17:14:33;20.90;54.70
21439;DHT22;10880;50.302;18.736;2023-05-15T17:17:26;20.90;54.70
21439;DHT22;10880;50.302;18.736;2023-05-15T17:20:00;20.90;54.70
21439;DHT22;10880;50.302;18.736;2023-05-15T17:22:53;20.90;54.80
21439;DHT22;10880;50.302;18.736;2023-05-15T17:25:26;20.90;54.60
21439;DHT22;10880;50.302;18.736;2023-05-15T17:28:19;20.90;54.80
21439;DHT22;10880;50.302;18.736;2023-05-15T17:30:52;20.90;54.70
21439;DHT22;10880;50.302;18.736;2023-05-15T17:33:46;20.80;54.50
21439;DHT22;10880;50.302;18.736;2023-05-15T17:36:19;20.90;54.50